Time;durP1;ratioP1;P1;durP2;ratioP2;P2;SDS_P1;SDS_P2;PMS_P1;PMS_P2;Temp;Humidity;BMP_temperature;BMP_pressure;BME280_temperature;BME280_humidity;BME280_pressure;Samples;Min_cycle;Max_cycle;Signal;HPM_P1;HPM_P2
2022/07/17 00:00:25;;;;;;;1.23;1.13;;;26.10;48.70;;;;;;5086300;28;20052;-61
2022/07/17 00:02:52;;;;;;;0.88;0.88;;;26.00;48.60;;;;;;5087220;28;20056;-61
2022/07/17 00:05:19;;;;;;;0.95;0.95;;;26.10;48.70;;;;;;5086609;28;20051;-61
2022/07/17 00:07:48;;;;;;;0.98;0.98;;;26.10;48.70;;;;;;5085467;28;20044;-61
2022/07/17 00:10:16;;;;;;;0.85;0.85;;;26.10;48.70;;;;;;5084785;28;20282;-61
2022/07/17 00:12:44;;;;;;;0.82;0.82;;;26.00;48.70;;;;;;5085691;28;20185;-62
2022/07/17 00:15:12;;;;;;;0.80;0.80;;;26.10;48.70;;;;;;5069669;28;20306;-61
2022/07/17 00:17:39;;;;;;;1.33;1.23;;;26.00;48.70;;;;;;5066885;28;20056;-61
2022/07/17 00:20:07;;;;;;;0.90;0.90;;;26.10;48.80;;;;;;5066823;28;20067;-61
2022/07/17 00:22:35;;;;;;;0.90;0.90;;;26.00;48.70;;;;;;5065938;28;20048;-61
2022/07/17 00:25:03;;;;;;;0.90;0.90;;;26.10;48.80;;;;;;5066148;28;20052;-62
2022/07/17 00:27:31;;;;;;;0.80;0.80;;;26.00;48.70;;;;;;5064345;28;20393;-61
2022/07/17 00:29:58;;;;;;;0.80;0.80;;;26.00;48.70;;;;;;5062751;28;20040;-61
2022/07/17 00:32:25;;;;;;;0.93;0.93;;;26.00;48.70;;;;;;5070059;28;20551;-61
2022/07/17 00:34:52;;;;;;;1.00;1.00;;;26.00;48.70;;;;;;5084080;28;20500;-61
2022/07/17 00:37:20;;;;;;;0.80;0.80;;;26.00;48.70;;;;;;5085388;28;20052;-61
2022/07/17 00:39:47;;;;;;;1.00;1.00;;;26.00;48.70;;;;;;5084744;28;20052;-61
2022/07/17 00:42:16;;;;;;;0.90;0.90;;;26.00;48.70;;;;;;5085316;28;20048;-61
2022/07/17 00:44:44;;;;;;;1.27;1.02;;;26.00;48.70;;;;;;5084826;28;20048;-61
2022/07/17 00:47:17;;;;;;;0.93;0.93;;;26.00;48.70;;;;;;5085080;28;20446;-61
2022/07/17 00:49:45;;;;;;;0.98;0.88;;;26.00;48.70;;;;;;5083735;28;20048;-61
2022/07/17 00:52:14;;;;;;;1.02;0.88;;;26.00;48.80;;;;;;5085101;28;20047;-61
2022/07/17 00:54:44;;;;;;;1.15;1.08;;;26.00;48.80;;;;;;5084760;28;20076;-63
2022/07/17 00:57:13;;;;;;;0.77;0.77;;;26.00;48.80;;;;;;5086284;28;20105;-64
2022/07/17 00:59:42;;;;;;;0.80;0.80;;;26.00;48.80;;;;;;5084412;28;20036;-62
2022/07/17 01:02:11;;;;;;;0.98;0.98;;;26.00;48.70;;;;;;5088858;28;20566;-63
2022/07/17 01:04:39;;;;;;;1.00;1.00;;;26.00;48.70;;;;;;5088743;28;20056;-62
2022/07/17 01:07:07;;;;;;;0.80;0.80;;;26.00;48.70;;;;;;5089959;28;20052;-62
2022/07/17 01:09:34;;;;;;;1.08;1.00;;;26.00;48.80;;;;;;5088603;28;20044;-62
2022/07/17 01:12:05;;;;;;;1.10;1.10;;;26.00;48.70;;;;;;5089567;28;20074;-62
2022/07/17 01:14:32;;;;;;;0.73;0.73;;;26.00;48.70;;;;;;5090381;28;20443;-62
2022/07/17 01:17:01;;;;;;;1.00;1.00;;;26.00;48.70;;;;;;5089525;28;20557;-62
2022/07/17 01:19:28;;;;;;;1.00;1.00;;;26.00;48.70;;;;;;5089794;28;20056;-62
2022/07/17 01:21:55;;;;;;;1.02;1.02;;;26.00;48.70;;;;;;5089416;28;20048;-62
2022/07/17 01:24:22;;;;;;;0.80;0.80;;;26.00;48.70;;;;;;5090255;28;20062;-62
2022/07/17 01:26:49;;;;;;;0.90;0.90;;;26.00;48.70;;;;;;5089848;28;20581;-63
2022/07/17 01:29:17;;;;;;;0.95;0.90;;;26.00;48.70;;;;;;5089672;28;20082;-63
2022/07/17 01:31:45;;;;;;;1.17;1.17;;;26.00;48.70;;;;;;5085306;28;20052;-63
2022/07/17 01:34:13;;;;;;;0.73;0.73;;;26.00;48.80;;;;;;5089195;28;20051;-62
2022/07/17 01:36:41;;;;;;;0.70;0.70;;;26.00;48.80;;;;;;5087380;28;20052;-62
2022/07/17 01:39:08;;;;;;;0.90;0.90;;;26.00;48.80;;;;;;5087929;28;20502;-62
2022/07/17 01:41:36;;;;;;;0.77;0.77;;;26.00;48.80;;;;;;5088420;28;20048;-62
2022/07/17 01:44:04;;;;;;;0.80;0.80;;;26.00;48.80;;;;;;5086721;28;20044;-62
2022/07/17 01:46:31;;;;;;;0.90;0.82;;;26.00;48.80;;;;;;5088160;28;20048;-62
2022/07/17 01:49:00;;;;;;;0.80;0.80;;;26.00;48.80;;;;;;5088279;28;20076;-62
2022/07/17 01:51:28;;;;;;;1.00;1.00;;;26.00;48.90;;;;;;5087620;28;20488;-62
2022/07/17 01:53:58;;;;;;;1.13;0.82;;;26.00;48.80;;;;;;5087922;28;20480;-62
2022/07/17 01:56:25;;;;;;;0.88;0.88;;;26.00;48.80;;;;;;5086662;28;20078;-62
2022/07/17 01:58:53;;;;;;;0.80;0.80;;;26.00;48.80;;;;;;5087233;28;20112;-62
2022/07/17 02:01:20;;;;;;;0.65;0.65;;;26.00;48.80;;;;;;5088177;28;20052;-62
2022/07/17 02:03:47;;;;;;;0.70;0.70;;;25.90;48.80;;;;;;5083053;28;20059;-62
2022/07/17 02:06:15;;;;;;;0.80;0.80;;;25.90;48.80;;;;;;5087830;28;20048;-62
2022/07/17 02:08:42;;;;;;;1.00;1.00;;;25.90;48.80;;;;;;5086379;28;20051;-62
2022/07/17 02:11:09;;;;;;;0.90;0.90;;;26.00;48.90;;;;;;5087698;28;20527;-62
2022/07/17 02:13:36;;;;;;;0.77;0.77;;;25.90;48.80;;;;;;5087656;28;20044;-62
2022/07/17 02:16:04;;;;;;;0.77;0.77;;;25.90;48.80;;;;;;5087750;28;20128;-61
2022/07/17 02:18:32;;;;;;;0.73;0.73;;;25.90;48.80;;;;;;5087604;28;20047;-62
2022/07/17 02:21:00;;;;;;;0.60;0.60;;;25.90;48.80;;;;;;5087439;28;20433;-62
2022/07/17 02:23:28;;;;;;;0.90;0.90;;;25.90;48.80;;;;;;5087157;28;20555;-62
2022/07/17 02:25:56;;;;;;;0.80;0.80;;;25.90;48.80;;;;;;5087624;28;20397;-62
2022/07/17 02:28:23;;;;;;;0.95;0.95;;;25.90;48.90;;;;;;5087139;28;20048;-62
2022/07/17 02:30:50;;;;;;;0.90;0.90;;;25.90;48.90;;;;;;5087403;28;20051;-62
2022/07/17 02:33:18;;;;;;;0.98;0.90;;;25.90;48.90;;;;;;5086987;28;20055;-62
2022/07/17 02:35:45;;;;;;;0.68;0.68;;;25.90;48.90;;;;;;5082688;28;20558;-62
2022/07/17 02:38:12;;;;;;;0.80;0.80;;;25.90;48.90;;;;;;5087658;28;20131;-62
2022/07/17 02:40:41;;;;;;;0.90;0.90;;;25.90;48.90;;;;;;5087007;28;20048;-61
2022/07/17 02:43:08;;;;;;;0.82;0.82;;;25.90;48.90;;;;;;5085525;28;20048;-62
2022/07/17 02:45:36;;;;;;;0.77;0.77;;;25.90;48.90;;;;;;5085695;28;20073;-62
2022/07/17 02:48:03;;;;;;;0.70;0.70;;;25.90;48.90;;;;;;5086399;28;20052;-62
2022/07/17 02:50:30;;;;;;;0.75;0.75;;;25.90;48.90;;;;;;5085041;28;20523;-62
2022/07/17 02:52:58;;;;;;;0.80;0.80;;;25.90;48.90;;;;;;5087125;28;20473;-62
2022/07/17 02:55:25;;;;;;;0.63;0.63;;;25.90;48.90;;;;;;5087086;28;20063;-62
2022/07/17 02:57:52;;;;;;;0.70;0.70;;;25.90;48.80;;;;;;5086374;28;20052;-62
2022/07/17 03:00:20;;;;;;;0.73;0.73;;;25.90;48.80;;;;;;5086565;28;20052;-62
2022/07/17 03:02:47;;;;;;;0.65;0.65;;;25.90;48.80;;;;;;5085592;28;20052;-62
2022/07/17 03:05:16;;;;;;;0.55;0.55;;;25.90;48.80;;;;;;5084618;28;20055;-61
2022/07/17 03:07:44;;;;;;;0.63;0.63;;;25.90;48.80;;;;;;5082378;28;20070;-61
2022/07/17 03:10:11;;;;;;;0.60;0.60;;;25.90;48.80;;;;;;5086307;28;20048;-61
2022/07/17 03:12:39;;;;;;;0.93;0.93;;;25.90;48.80;;;;;;5086893;28;20075;-61
2022/07/17 03:15:07;;;;;;;0.80;0.80;;;25.90;48.80;;;;;;5084934;28;20408;-61
2022/07/17 03:17:34;;;;;;;1.05;0.98;;;25.90;48.90;;;;;;5086319;28;20040;-62
2022/07/17 03:20:02;;;;;;;0.50;0.50;;;25.90;48.80;;;;;;5085450;28;20243;-61
2022/07/17 03:22:29;;;;;;;0.90;0.90;;;25.90;48.90;;;;;;5086086;28;20040;-61
2022/07/17 03:24:56;;;;;;;0.60;0.60;;;25.90;48.80;;;;;;5086200;28;20048;-61
2022/07/17 03:27:23;;;;;;;0.80;0.80;;;25.90;48.90;;;;;;5086275;28;20055;-61
2022/07/17 03:29:52;;;;;;;0.73;0.73;;;25.90;48.90;;;;;;5086160;28;20721;-62
2022/07/17 03:32:20;;;;;;;0.60;0.60;;;25.90;48.90;;;;;;5086034;28;20344;-62
2022/07/17 03:34:47;;;;;;;0.85;0.85;;;25.90;48.90;;;;;;5085851;28;20048;-61
2022/07/17 03:37:15;;;;;;;0.80;0.80;;;25.90;48.90;;;;;;5081530;28;20056;-61
2022/07/17 03:39:43;;;;;;;0.90;0.90;;;25.90;48.80;;;;;;5074317;28;20394;-62
2022/07/17 03:42:10;;;;;;;0.65;0.65;;;25.90;48.80;;;;;;5086309;28;20048;-61
2022/07/17 03:44:37;;;;;;;0.70;0.70;;;25.90;48.80;;;;;;5085563;28;20055;-61
2022/07/17 03:47:04;;;;;;;0.63;0.63;;;25.90;48.80;;;;;;5085503;28;20048;-61
2022/07/17 03:49:32;;;;;;;0.70;0.70;;;25.90;48.70;;;;;;5085672;28;20093;-61
2022/07/17 03:51:59;;;;;;;1.08;1.08;;;26.00;48.70;;;;;;5085915;28;20097;-61
2022/07/17 03:54:27;;;;;;;0.68;0.68;;;26.00;48.70;;;;;;5085770;28;20047;-61
2022/07/17 03:56:54;;;;;;;0.70;0.70;;;26.00;48.60;;;;;;5085735;28;20101;-61
2022/07/17 03:59:21;;;;;;;0.50;0.50;;;26.00;48.60;;;;;;5085090;28;20217;-61
2022/07/17 04:01:48;;;;;;;0.70;0.70;;;26.00;48.60;;;;;;5084393;28;20074;-61
2022/07/17 04:04:16;;;;;;;0.77;0.77;;;26.00;48.50;;;;;;5085237;28;20059;-61
2022/07/17 04:06:43;;;;;;;0.73;0.73;;;26.00;48.50;;;;;;5084817;28;20051;-62
2022/07/17 04:09:10;;;;;;;0.93;0.93;;;26.00;48.40;;;;;;5080651;28;20520;-61
2022/07/17 04:11:37;;;;;;;0.60;0.60;;;26.00;48.40;;;;;;5086022;28;20052;-61
2022/07/17 04:14:04;;;;;;;0.68;0.68;;;26.00;48.40;;;;;;5077010;28;20041;-61
2022/07/17 04:16:32;;;;;;;0.80;0.80;;;26.10;48.40;;;;;;5064885;28;20052;-61
2022/07/17 04:18:59;;;;;;;0.80;0.80;;;26.00;48.30;;;;;;5064001;28;20102;-61
2022/07/17 04:21:26;;;;;;;0.68;0.68;;;26.10;48.30;;;;;;5064657;28;20056;-61
2022/07/17 04:23:53;;;;;;;0.80;0.80;;;26.10;48.30;;;;;;5065021;28;20041;-61
2022/07/17 04:26:21;;;;;;;0.70;0.70;;;26.10;48.20;;;;;;5064884;28;20102;-61
2022/07/17 04:28:48;;;;;;;0.93;0.68;;;26.10;48.20;;;;;;5064869;28;20045;-62
2022/07/17 04:31:15;;;;;;;0.65;0.65;;;26.10;48.10;;;;;;5065639;28;20458;-61
2022/07/17 04:33:42;;;;;;;0.63;0.63;;;26.20;48.20;;;;;;5067446;28;20048;-62
2022/07/17 04:36:10;;;;;;;0.77;0.77;;;26.20;48.10;;;;;;5069112;28;20141;-61
2022/07/17 04:38:37;;;;;;;0.90;0.90;;;26.20;48.00;;;;;;5069442;28;20460;-61
2022/07/17 04:41:04;;;;;;;0.73;0.73;;;26.30;48.00;;;;;;5064443;28;20764;-61
2022/07/17 04:43:31;;;;;;;0.60;0.60;;;26.20;47.90;;;;;;5067894;28;20505;-61
2022/07/17 04:45:58;;;;;;;0.85;0.73;;;26.30;47.90;;;;;;5067423;28;20045;-61
2022/07/17 04:48:26;;;;;;;0.80;0.80;;;26.30;47.90;;;;;;5068614;28;20055;-61
2022/07/17 04:50:53;;;;;;;0.77;0.77;;;26.40;47.90;;;;;;5067548;28;20439;-62
2022/07/17 04:53:20;;;;;;;0.60;0.60;;;26.40;47.80;;;;;;5069168;28;20052;-61
2022/07/17 04:55:50;;;;;;;0.60;0.60;;;26.40;47.70;;;;;;5068645;28;20504;-61
2022/07/17 04:58:18;;;;;;;0.47;0.47;;;26.40;47.70;;;;;;5068661;28;20045;-61
2022/07/17 05:00:45;;;;;;;0.60;0.60;;;26.40;47.60;;;;;;5068573;28;20044;-61
2022/07/17 05:03:13;;;;;;;0.90;0.88;;;26.40;47.60;;;;;;5069262;28;20094;-61
2022/07/17 05:05:40;;;;;;;0.50;0.50;;;26.40;47.50;;;;;;5069059;28;20093;-61
2022/07/17 05:08:07;;;;;;;0.88;0.70;;;26.40;47.40;;;;;;5067606;28;20105;-61
2022/07/17 05:10:35;;;;;;;0.50;0.50;;;26.40;47.10;;;;;;5067182;28;20106;-61
2022/07/17 05:13:02;;;;;;;0.50;0.50;;;26.30;46.90;;;;;;5064055;28;20052;-61
2022/07/17 05:15:29;;;;;;;0.65;0.65;;;26.20;46.80;;;;;;5068547;28;20055;-61
2022/07/17 05:18:04;;;;;;;0.68;0.68;;;26.10;46.90;;;;;;5067871;28;20497;-61
2022/07/17 05:20:31;;;;;;;1.50;0.50;;;25.80;47.00;;;;;;5068639;28;20045;-61
2022/07/17 05:22:58;;;;;;;0.60;0.60;;;25.60;47.30;;;;;;5068243;28;20079;-61
2022/07/17 05:25:25;;;;;;;0.60;0.60;;;25.30;47.60;;;;;;5068056;28;20771;-61
2022/07/17 05:27:53;;;;;;;0.40;0.40;;;24.90;47.70;;;;;;5068150;28;20052;-61
2022/07/17 05:30:20;;;;;;;0.77;0.77;;;24.60;47.60;;;;;;5068166;28;20048;-61
2022/07/17 05:32:47;;;;;;;0.50;0.50;;;24.20;47.30;;;;;;5066666;28;20504;-61
2022/07/17 05:35:14;;;;;;;0.70;0.70;;;23.90;47.10;;;;;;5068323;28;20489;-61
2022/07/17 05:37:41;;;;;;;0.50;0.50;;;23.60;47.10;;;;;;5068524;28;20056;-61
2022/07/17 05:40:09;;;;;;;1.40;0.70;;;23.20;47.10;;;;;;5068195;28;20044;-61
2022/07/17 05:42:36;;;;;;;0.70;0.70;;;22.90;47.10;;;;;;5066421;28;20090;-61
2022/07/17 05:45:04;;;;;;;0.50;0.50;;;22.50;47.30;;;;;;5063550;28;20072;-61
2022/07/17 05:47:31;;;;;;;0.88;0.55;;;22.20;48.10;;;;;;5067493;28;20086;-61
2022/07/17 05:49:59;;;;;;;1.05;0.95;;;22.00;48.40;;;;;;5067949;28;20417;-61
2022/07/17 05:52:26;;;;;;;0.80;0.60;;;21.80;48.60;;;;;;5067601;28;20045;-61
2022/07/17 05:54:53;;;;;;;0.57;0.57;;;21.60;48.90;;;;;;5067947;28;20048;-61
2022/07/17 05:57:20;;;;;;;1.77;1.00;;;21.40;49.10;;;;;;5067505;28;20097;-61
2022/07/17 05:59:47;;;;;;;0.70;0.70;;;21.30;49.50;;;;;;5066539;28;20075;-61
2022/07/17 06:02:15;;;;;;;0.45;0.40;;;21.20;49.60;;;;;;5067479;28;20080;-62
2022/07/17 06:04:42;;;;;;;2.08;0.60;;;21.10;49.90;;;;;;5067431;28;20110;-61
2022/07/17 06:07:09;;;;;;;0.45;0.43;;;21.00;50.10;;;;;;5067131;28;20547;-61
2022/07/17 06:09:37;;;;;;;0.60;0.60;;;21.00;50.40;;;;;;5068185;28;20107;-61
2022/07/17 06:12:04;;;;;;;0.57;0.57;;;20.90;50.50;;;;;;5067328;28;20156;-61
2022/07/17 06:14:31;;;;;;;0.63;0.63;;;20.80;50.70;;;;;;5065792;28;20106;-61
2022/07/17 06:16:58;;;;;;;0.77;0.70;;;20.80;50.70;;;;;;5064135;28;20110;-61
2022/07/17 06:19:25;;;;;;;1.20;0.63;;;20.80;50.90;;;;;;5066116;28;20049;-61
2022/07/17 06:21:53;;;;;;;0.65;0.60;;;20.80;51.00;;;;;;5067769;28;20064;-61
2022/07/17 06:24:20;;;;;;;0.50;0.50;;;20.70;51.10;;;;;;5067087;28;20140;-61
2022/07/17 06:26:47;;;;;;;1.55;1.10;;;20.80;51.20;;;;;;5066198;28;20106;-61
2022/07/17 06:29:14;;;;;;;0.85;0.63;;;20.70;51.20;;;;;;5066779;28;20071;-61
2022/07/17 06:31:41;;;;;;;1.85;1.00;;;20.80;51.30;;;;;;5067698;28;20056;-61
2022/07/17 06:34:09;;;;;;;0.75;0.50;;;20.70;51.30;;;;;;5065736;28;20044;-62
2022/07/17 06:36:36;;;;;;;0.75;0.70;;;20.70;51.30;;;;;;5067318;28;20057;-61
2022/07/17 06:39:03;;;;;;;0.73;0.60;;;20.70;51.40;;;;;;5067019;28;20048;-61
2022/07/17 06:41:30;;;;;;;0.80;0.80;;;20.60;51.30;;;;;;5067057;28;20041;-61
2022/07/17 06:43:57;;;;;;;0.65;0.65;;;20.60;51.30;;;;;;5066792;28;20088;-61
2022/07/17 06:46:25;;;;;;;0.75;0.70;;;20.60;51.50;;;;;;5065233;28;20068;-61
2022/07/17 06:48:52;;;;;;;0.35;0.35;;;20.60;51.50;;;;;;5063572;28;20057;-61
2022/07/17 06:51:19;;;;;;;3.25;0.50;;;20.60;51.60;;;;;;5065528;28;20040;-61
2022/07/17 06:53:46;;;;;;;1.08;0.57;;;20.60;51.70;;;;;;5066488;28;20044;-61
2022/07/17 06:56:13;;;;;;;0.52;0.52;;;20.60;51.80;;;;;;5064778;28;20052;-61
2022/07/17 06:58:40;;;;;;;0.57;0.57;;;20.60;51.90;;;;;;5066120;28;20097;-61
2022/07/17 07:01:08;;;;;;;1.05;0.50;;;20.60;52.00;;;;;;5066683;28;20048;-61
2022/07/17 07:03:35;;;;;;;0.88;0.70;;;20.60;52.10;;;;;;5066365;28;20115;-62
2022/07/17 07:06:02;;;;;;;0.85;0.60;;;20.60;51.90;;;;;;5066204;28;20049;-62
2022/07/17 07:08:30;;;;;;;0.60;0.60;;;20.60;51.80;;;;;;5066387;28;20045;-62
2022/07/17 07:10:57;;;;;;;0.55;0.55;;;20.60;51.90;;;;;;5066028;28;20508;-62
2022/07/17 07:13:24;;;;;;;1.02;0.93;;;20.50;51.90;;;;;;5066558;28;20040;-61
2022/07/17 07:15:51;;;;;;;1.00;0.70;;;20.60;52.00;;;;;;5066346;28;20059;-61
2022/07/17 07:18:19;;;;;;;0.40;0.40;;;20.50;51.90;;;;;;5064676;28;20768;-61
2022/07/17 07:20:46;;;;;;;0.77;0.57;;;20.50;51.90;;;;;;5063433;28;20448;-62
2022/07/17 07:23:14;;;;;;;0.70;0.52;;;20.50;51.90;;;;;;5066159;28;20045;-62
2022/07/17 07:25:43;;;;;;;0.60;0.60;;;20.50;52.00;;;;;;5066019;28;20052;-62
2022/07/17 07:28:10;;;;;;;0.55;0.55;;;20.50;51.90;;;;;;5066103;28;20052;-66
2022/07/17 07:30:37;;;;;;;0.88;0.50;;;20.50;52.00;;;;;;5065990;28;20048;-61
2022/07/17 07:33:05;;;;;;;0.70;0.60;;;20.50;51.90;;;;;;5066135;28;20048;-61
2022/07/17 07:35:32;;;;;;;0.60;0.60;;;20.50;51.90;;;;;;5065735;28;20048;-61
2022/07/17 07:37:59;;;;;;;1.73;0.65;;;20.50;51.90;;;;;;5064746;28;20420;-61
2022/07/17 07:40:27;;;;;;;3.00;0.65;;;20.50;51.90;;;;;;5065100;28;20488;-61
2022/07/17 07:42:54;;;;;;;0.75;0.70;;;20.50;51.80;;;;;;5064265;28;20093;-61
2022/07/17 07:45:21;;;;;;;1.85;0.50;;;20.50;51.80;;;;;;5064571;28;20048;-61
2022/07/17 07:47:52;;;;;;;0.80;0.80;;;20.50;51.70;;;;;;5065948;28;20045;-61
2022/07/17 07:50:23;;;;;;;0.82;0.68;;;20.60;51.80;;;;;;5061366;28;20139;-62
2022/07/17 07:52:52;;;;;;;0.55;0.55;;;20.60;51.70;;;;;;5065386;28;20144;-61
2022/07/17 07:55:21;;;;;;;0.65;0.40;;;20.60;51.70;;;;;;5065312;28;20409;-61
2022/07/17 07:58:06;;;;;;;1.30;0.70;;;20.60;51.50;;;;;;5065639;28;20045;-61
2022/07/17 08:00:34;;;;;;;2.55;0.52;;;20.60;51.40;;;;;;5065084;28;20596;-61
2022/07/17 08:03:01;;;;;;;1.17;0.77;;;20.60;51.50;;;;;;5065595;28;20048;-61
2022/07/17 08:05:30;;;;;;;0.57;0.57;;;20.60;51.30;;;;;;5065249;28;20045;-62
2022/07/17 08:07:57;;;;;;;1.02;0.50;;;20.60;51.30;;;;;;5064475;28;20344;-61
2022/07/17 08:10:24;;;;;;;0.50;0.50;;;20.60;51.40;;;;;;5065869;28;20374;-61
2022/07/17 08:12:52;;;;;;;0.60;0.60;;;20.60;51.20;;;;;;5065994;28;20056;-61
2022/07/17 08:15:21;;;;;;;0.55;0.40;;;20.70;51.30;;;;;;5065251;28;20488;-62
2022/07/17 08:17:50;;;;;;;0.52;0.30;;;20.70;51.30;;;;;;5064111;28;20045;-61
2022/07/17 08:20:19;;;;;;;1.20;0.45;;;20.60;51.20;;;;;;5064819;28;20110;-61
2022/07/17 08:22:47;;;;;;;1.90;0.47;;;20.70;51.30;;;;;;5060566;28;20409;-61
2022/07/17 08:25:33;;;;;;;0.55;0.50;;;20.60;51.20;;;;;;5064138;28;20048;-62
2022/07/17 08:28:01;;;;;;;1.58;0.52;;;20.70;51.80;;;;;;5065338;28;20044;-62
2022/07/17 08:30:31;;;;;;;1.63;0.70;;;20.70;51.30;;;;;;5064891;28;20665;-61
2022/07/17 08:32:58;;;;;;;1.85;0.38;;;20.60;51.20;;;;;;5064219;28;20143;-61
2022/07/17 08:35:26;;;;;;;1.88;0.38;;;20.60;51.20;;;;;;5065054;28;20097;-61
2022/07/17 08:37:53;;;;;;;0.95;0.47;;;20.60;51.30;;;;;;5065468;28;20452;-61
2022/07/17 08:40:26;;;;;;;3.05;0.80;;;20.60;51.30;;;;;;5064843;28;20041;-61
2022/07/17 08:42:55;;;;;;;0.60;0.43;;;20.60;51.20;;;;;;5064100;28;20252;-61
2022/07/17 08:45:23;;;;;;;0.60;0.60;;;20.70;51.20;;;;;;5063635;28;20221;-64
2022/07/17 08:47:52;;;;;;;1.85;0.60;;;20.60;51.10;;;;;;5065210;28;20056;-61
2022/07/17 08:50:32;;;;;;;0.70;0.57;;;20.70;51.10;;;;;;5064811;28;20049;-61
2022/07/17 08:53:00;;;;;;;0.30;0.30;;;20.60;51.00;;;;;;5063338;28;20059;-61
2022/07/17 08:55:28;;;;;;;0.65;0.40;;;20.60;50.90;;;;;;5060262;28;20127;-62
2022/07/17 08:57:56;;;;;;;0.88;0.45;;;20.70;50.90;;;;;;5064949;28;20525;-61
2022/07/17 09:00:24;;;;;;;0.38;0.32;;;20.60;50.90;;;;;;5064834;28;20059;-61
2022/07/17 09:03:07;;;;;;;0.77;0.50;;;20.60;50.90;;;;;;5064952;28;20044;-61
2022/07/17 09:05:40;;;;;;;0.80;0.40;;;20.60;50.90;;;;;;5065204;28;20052;-61
2022/07/17 09:08:09;;;;;;;0.77;0.52;;;20.60;50.90;;;;;;5064975;28;20501;-61
2022/07/17 09:10:39;;;;;;;0.47;0.43;;;20.60;50.90;;;;;;5064976;28;20299;-61
2022/07/17 09:13:28;;;;;;;1.23;0.50;;;20.70;50.90;;;;;;5064738;28;20397;-61
2022/07/17 09:16:08;;;;;;;2.13;0.60;;;20.70;51.40;;;;;;5063869;28;20071;-61
2022/07/17 09:18:46;;;;;;;0.40;0.40;;;20.60;50.90;;;;;;5066076;28;20052;-61
2022/07/17 09:21:19;;;;;;;0.20;0.20;;;20.60;50.90;;;;;;5068505;28;20044;-61
2022/07/17 09:24:05;;;;;;;0.68;0.43;;;20.60;50.90;;;;;;5066874;28;20490;-61
2022/07/17 09:26:43;;;;;;;0.40;0.40;;;20.60;50.90;;;;;;5063543;28;20040;-62
2022/07/17 09:29:12;;;;;;;1.23;0.50;;;20.60;51.00;;;;;;5068253;28;20067;-61
2022/07/17 09:31:39;;;;;;;0.47;0.47;;;20.60;50.90;;;;;;5072071;28;20331;-61
2022/07/17 09:34:17;;;;;;;0.40;0.40;;;20.60;50.70;;;;;;5088564;28;20051;-61
2022/07/17 09:36:44;;;;;;;1.42;0.40;;;20.60;50.70;;;;;;5088159;28;20155;-61
2022/07/17 09:39:11;;;;;;;0.85;0.50;;;20.70;50.80;;;;;;5088586;28;20051;-61
2022/07/17 09:41:38;;;;;;;0.82;0.50;;;20.70;50.70;;;;;;5087702;28;20367;-61
2022/07/17 09:44:06;;;;;;;0.30;0.30;;;20.70;50.80;;;;;;5088860;28;20052;-61
2022/07/17 09:46:36;;;;;;;0.50;0.50;;;20.70;50.70;;;;;;5088105;28;20039;-62
2022/07/17 09:49:09;;;;;;;1.08;0.50;;;20.70;50.70;;;;;;5087150;28;20420;-61
2022/07/17 09:51:38;;;;;;;3.05;0.50;;;20.70;51.00;;;;;;5087821;28;20066;-61
2022/07/17 09:54:08;;;;;;;0.90;0.88;;;20.70;50.90;;;;;;5087972;28;20094;-61
2022/07/17 09:56:37;;;;;;;1.75;1.10;;;20.80;50.90;;;;;;5087817;28;20055;-62
2022/07/17 09:59:08;;;;;;;2.33;0.50;;;20.80;50.80;;;;;;5083340;28;20124;-61
2022/07/17 10:01:38;;;;;;;0.73;0.30;;;20.80;50.70;;;;;;5087639;28;20051;-62
2022/07/17 10:04:06;;;;;;;1.77;0.52;;;20.80;50.90;;;;;;5086692;28;20051;-61
2022/07/17 10:06:33;;;;;;;0.40;0.25;;;20.80;50.70;;;;;;5087550;28;20044;-61
2022/07/17 10:09:02;;;;;;;0.40;0.30;;;20.80;50.70;;;;;;5087999;28;20306;-61
2022/07/17 10:11:32;;;;;;;0.55;0.40;;;20.80;50.60;;;;;;5087495;28;20131;-61
2022/07/17 10:14:10;;;;;;;0.52;0.52;;;20.80;50.60;;;;;;5088089;28;20051;-61
2022/07/17 10:16:38;;;;;;;1.67;0.30;;;20.80;50.60;;;;;;5087286;28;20423;-62
2022/07/17 10:19:23;;;;;;;0.70;0.40;;;20.70;50.60;;;;;;5087880;28;20381;-61
2022/07/17 10:21:59;;;;;;;0.60;0.50;;;20.70;50.60;;;;;;5069379;28;20044;-61
2022/07/17 10:24:29;;;;;;;1.08;0.50;;;20.70;50.50;;;;;;5087615;28;20133;-61
2022/07/17 10:26:58;;;;;;;0.77;0.40;;;20.70;50.40;;;;;;5086750;28;20112;-62
2022/07/17 10:29:35;;;;;;;;;;;20.70;50.40;;;;;;5082399;28;20052;-61
2022/07/17 10:32:13;;;;;;;0.77;0.50;;;20.60;50.30;;;;;;5087357;28;20097;-61
2022/07/17 10:35:05;;;;;;;1.33;0.50;;;20.60;50.30;;;;;;5087408;28;20952;-62
2022/07/17 10:37:40;;;;;;;0.30;0.30;;;20.60;50.10;;;;;;5087747;28;20263;-61
2022/07/17 10:40:16;;;;;;;0.70;0.60;;;20.60;50.00;;;;;;5087201;28;20077;-62
2022/07/17 10:42:51;;;;;;;0.50;0.50;;;20.60;49.90;;;;;;5085607;28;20134;-62
2022/07/17 10:45:26;;;;;;;2.17;0.40;;;20.50;49.80;;;;;;5085331;28;20076;-62
2022/07/17 10:47:57;;;;;;;0.60;0.50;;;20.50;49.90;;;;;;5087249;28;20055;-61
2022/07/17 10:50:40;;;;;;;1.98;1.20;;;20.50;49.90;;;;;;5085589;28;20121;-61
2022/07/17 10:53:17;;;;;;;0.80;0.40;;;20.40;49.80;;;;;;5086523;28;20097;-61
2022/07/17 10:55:56;;;;;;;0.70;0.65;;;20.40;49.90;;;;;;5070582;28;20276;-62
2022/07/17 10:58:28;;;;;;;0.40;0.35;;;20.30;50.00;;;;;;5086553;28;20425;-61
2022/07/17 11:01:04;;;;;;;1.70;0.40;;;20.30;50.20;;;;;;5082817;28;20123;-61
2022/07/17 11:03:37;;;;;;;1.10;0.47;;;20.30;50.10;;;;;;5086040;28;20101;-61
2022/07/17 11:06:23;;;;;;;0.85;0.40;;;20.30;50.20;;;;;;5086474;28;20477;-62
2022/07/17 11:08:57;;;;;;;0.43;0.40;;;20.20;50.20;;;;;;5086383;28;20047;-62
2022/07/17 11:11:44;;;;;;;0.50;0.50;;;20.30;50.50;;;;;;5085082;28;20055;-61
2022/07/17 11:14:22;;;;;;;0.30;0.30;;;20.30;50.40;;;;;;5086725;28;20043;-61
2022/07/17 11:16:55;;;;;;;1.33;0.65;;;20.30;50.40;;;;;;5086412;28;20056;-61
2022/07/17 11:19:32;;;;;;;0.73;0.60;;;20.30;50.20;;;;;;5086853;28;20052;-61
2022/07/17 11:22:03;;;;;;;0.80;0.57;;;20.30;50.10;;;;;;5085730;28;20044;-61
2022/07/17 11:24:45;;;;;;;1.45;0.80;;;20.30;50.00;;;;;;5086411;28;20071;-62
2022/07/17 11:27:29;;;;;;;0.93;0.50;;;20.30;50.00;;;;;;5086658;28;20429;-61
2022/07/17 11:29:59;;;;;;;0.70;0.43;;;20.30;49.90;;;;;;5085958;28;20474;-62
2022/07/17 11:32:35;;;;;;;0.60;0.40;;;20.30;49.80;;;;;;5084193;28;20332;-62
2022/07/17 11:35:13;;;;;;;0.43;0.43;;;20.30;49.90;;;;;;5083336;28;20044;-61
2022/07/17 11:38:01;;;;;;;0.77;0.50;;;20.30;49.90;;;;;;5084862;28;20052;-62
2022/07/17 11:40:28;;;;;;;0.52;0.52;;;20.30;50.30;;;;;;5084471;28;20052;-61
2022/07/17 11:43:04;;;;;;;0.82;0.55;;;20.30;50.50;;;;;;5086226;28;20056;-61
2022/07/17 11:45:32;;;;;;;2.97;0.90;;;20.30;50.50;;;;;;5086021;28;20239;-61
2022/07/17 11:48:03;;;;;;;0.50;0.50;;;20.30;50.30;;;;;;5085614;28;20044;-61
2022/07/17 11:50:30;;;;;;;2.50;0.75;;;20.30;50.20;;;;;;5085584;28;20050;-61
2022/07/17 11:53:03;;;;;;;0.85;0.60;;;20.30;50.20;;;;;;5085419;28;20361;-62
2022/07/17 11:55:41;;;;;;;0.60;0.60;;;20.30;50.10;;;;;;5085688;28;20062;-61
2022/07/17 11:58:08;;;;;;;0.77;0.40;;;20.30;50.10;;;;;;5085272;28;20043;-61
2022/07/17 12:00:36;;;;;;;0.70;0.65;;;20.20;49.90;;;;;;5085448;28;20458;-61
2022/07/17 12:03:05;;;;;;;0.65;0.40;;;20.30;50.10;;;;;;5085587;28;20128;-61
2022/07/17 12:05:35;;;;;;;0.63;0.53;;;20.30;50.10;;;;;;5080797;28;20356;-61
2022/07/17 12:08:02;;;;;;;1.17;0.50;;;20.20;50.10;;;;;;5086093;28;20627;-62
2022/07/17 12:10:32;;;;;;;3.58;0.85;;;20.20;50.10;;;;;;5085611;28;20040;-61
2022/07/17 12:13:05;;;;;;;0.50;0.30;;;20.20;50.20;;;;;;5085569;28;20052;-62
2022/07/17 12:15:39;;;;;;;1.42;0.75;;;20.20;50.30;;;;;;5085337;28;20044;-61
2022/07/17 12:18:20;;;;;;;1.85;0.63;;;20.20;50.30;;;;;;5083895;28;20044;-61
2022/07/17 12:20:50;;;;;;;0.77;0.52;;;20.20;50.40;;;;;;5069526;28;20052;-61
2022/07/17 12:23:33;;;;;;;1.38;0.55;;;20.20;50.50;;;;;;5085122;28;20114;-62
2022/07/17 12:26:12;;;;;;;0.70;0.70;;;20.20;50.50;;;;;;5086003;28;20421;-62
2022/07/17 12:28:39;;;;;;;2.05;0.50;;;20.20;50.70;;;;;;5085103;28;20582;-62
2022/07/17 12:31:14;;;;;;;0.82;0.50;;;20.20;50.70;;;;;;5085488;28;20562;-61
2022/07/17 12:33:42;;;;;;;0.82;0.80;;;20.30;50.90;;;;;;5085021;28;20354;-61
2022/07/17 12:36:09;;;;;;;0.65;0.57;;;20.30;50.90;;;;;;5085342;28;20044;-61
2022/07/17 12:38:37;;;;;;;1.00;0.57;;;20.30;50.90;;;;;;5080652;28;20105;-61
2022/07/17 12:41:04;;;;;;;1.05;0.60;;;20.40;51.00;;;;;;5084450;28;20098;-61
2022/07/17 12:43:32;;;;;;;0.65;0.65;;;20.40;51.00;;;;;;5085000;28;20485;-61
2022/07/17 12:45:59;;;;;;;0.52;0.52;;;20.40;50.90;;;;;;5084938;28;20052;-61
2022/07/17 12:48:37;;;;;;;0.93;0.60;;;20.50;50.90;;;;;;5083403;28;20052;-61
2022/07/17 12:51:05;;;;;;;1.45;0.80;;;20.50;50.90;;;;;;5085875;28;20408;-61
2022/07/17 12:53:35;;;;;;;1.15;1.05;;;20.50;50.90;;;;;;5086237;28;20116;-61
2022/07/17 12:56:03;;;;;;;0.63;0.63;;;20.50;50.90;;;;;;5089243;28;20040;-61
2022/07/17 12:58:31;;;;;;;1.52;0.70;;;20.60;50.90;;;;;;5088852;28;20131;-61